Time;durP1;ratioP1;P1;durP2;ratioP2;P2;SDS_P1;SDS_P2;PMS_P1;PMS_P2;Temp;Humidity;BMP_temperature;BMP_pressure;BME280_temperature;BME280_humidity;BME280_pressure;Samples;Min_cycle;Max_cycle;Signal;HPM_P1;HPM_P2
2023/07/11 00:00:55;;;;;;;5.90;4.00;;;;;;;26.05;41.07;99846.43;109305;1253;60921;-69
2023/07/11 00:03:22;;;;;;;10.30;3.50;;;;;;;25.96;41.30;99844.36;109255;1253;59645;-69
2023/07/11 00:06:00;;;;;;;5.10;3.70;;;;;;;25.98;41.30;99845.17;109250;1253;74285;-70
2023/07/11 00:08:27;;;;;;;6.10;3.70;;;;;;;25.80;41.58;99845.13;109300;1254;70121;-69
2023/07/11 00:10:55;;;;;;;4.00;3.30;;;;;;;25.87;41.43;99846.03;109254;1254;71465;-69
2023/07/11 00:13:22;;;;;;;5.00;3.50;;;;;;;26.00;41.20;99848.05;109247;1253;64322;-68
2023/07/11 00:16:04;;;;;;;5.30;3.90;;;;;;;25.97;41.28;99846.40;109267;1258;58719;-69
2023/07/11 00:18:32;;;;;;;6.80;3.90;;;;;;;26.01;41.21;99844.17;109305;1254;73846;-70
2023/07/11 00:20:59;;;;;;;8.10;3.70;;;;;;;26.06;41.46;99844.31;109244;1253;70943;-70
2023/07/11 00:23:26;;;;;;;4.90;3.90;;;;;;;26.07;41.39;99844.92;109219;1258;71676;-70
2023/07/11 00:25:54;;;;;;;6.40;3.80;;;;;;;26.11;41.25;99841.63;109268;1254;61661;-69
2023/07/11 00:28:21;;;;;;;5.70;3.80;;;;;;;26.11;41.23;99843.80;109235;1253;60080;-69
2023/07/11 00:30:49;;;;;;;6.00;3.60;;;;;;;26.15;41.21;99845.54;109271;1254;73736;-69
2023/07/11 00:33:17;;;;;;;5.30;4.10;;;;;;;25.98;41.52;99842.66;109214;1253;70570;-69
2023/07/11 00:35:45;;;;;;;5.10;3.90;;;;;;;25.96;41.61;99848.15;109315;1253;72618;-70
2023/07/11 00:38:15;;;;;;;7.50;4.40;;;;;;;25.92;41.76;99845.72;109192;1254;61444;-70
2023/07/11 00:40:43;;;;;;;7.60;4.00;;;;;;;25.95;41.82;99849.33;109270;1254;58787;-70
2023/07/11 00:43:12;;;;;;;5.80;4.10;;;;;;;26.01;41.85;99845.07;109241;1254;72725;-70
2023/07/11 00:45:49;;;;;;;5.00;4.00;;;;;;;25.94;41.96;99843.29;109219;1253;69983;-69
2023/07/11 00:48:17;;;;;;;7.70;4.30;;;;;;;26.00;41.87;99841.21;109242;1254;72352;-69
2023/07/11 00:50:45;;;;;;;7.10;4.40;;;;;;;26.00;41.87;99839.05;108967;1253;60487;-69
2023/07/11 00:53:12;;;;;;;5.80;3.60;;;;;;;26.13;41.77;99839.27;109100;1254;60802;-68
2023/07/11 00:55:41;;;;;;;6.50;4.30;;;;;;;26.17;41.63;99842.98;109171;1253;73785;-69
2023/07/11 00:58:08;;;;;;;13.20;4.60;;;;;;;26.05;41.99;99842.07;109060;1252;70163;-68
2023/07/11 01:00:35;;;;;;;6.40;4.10;;;;;;;25.86;42.24;99842.45;109064;1254;72365;-69
2023/07/11 01:03:03;;;;;;;6.20;4.00;;;;;;;25.83;42.38;99843.02;107927;1254;61665;-69
2023/07/11 01:05:32;;;;;;;5.90;4.40;;;;;;;25.94;42.23;99842.08;109170;1254;59619;-69
2023/07/11 01:08:00;;;;;;;5.70;3.90;;;;;;;25.77;42.53;99839.31;109081;1254;73033;-69
2023/07/11 01:10:27;;;;;;;8.50;4.70;;;;;;;25.99;42.20;99842.19;109211;1255;70508;-69
2023/07/11 01:12:58;;;;;;;9.70;4.60;;;;;;;25.96;42.35;99841.98;109181;1254;72883;-70
2023/07/11 01:15:25;;;;;;;5.90;4.30;;;;;;;25.64;42.86;99847.88;109062;1259;60411;-69
2023/07/11 01:17:53;;;;;;;9.40;4.50;;;;;;;25.69;43.03;99846.05;109182;1253;58971;-69
2023/07/11 01:20:22;;;;;;;7.00;4.80;;;;;;;25.71;42.95;99842.82;109054;1254;74257;-70
2023/07/11 01:22:52;;;;;;;6.40;4.70;;;;;;;25.71;42.95;99842.29;109169;1254;68771;-68
2023/07/11 01:25:19;;;;;;;7.20;5.00;;;;;;;25.61;43.23;99842.44;109182;1254;72769;-69
2023/07/11 01:27:47;;;;;;;9.30;5.00;;;;;;;25.63;43.24;99839.35;109181;1254;62166;-69
2023/07/11 01:30:24;;;;;;;6.30;4.50;;;;;;;25.71;43.21;99831.96;109195;1254;59992;-69
2023/07/11 01:32:52;;;;;;;7.30;4.50;;;;;;;25.77;42.98;99835.67;109094;1254;73883;-70
2023/07/11 01:35:19;;;;;;;11.20;4.90;;;;;;;25.74;42.98;99833.50;109192;1254;70515;-68
2023/07/11 01:37:47;;;;;;;7.60;4.60;;;;;;;25.90;42.72;99833.96;109183;1254;72679;-71
2023/07/11 01:40:15;;;;;;;7.30;5.00;;;;;;;25.87;42.74;99834.50;109195;1254;60165;-69
2023/07/11 01:42:42;;;;;;;5.80;4.50;;;;;;;25.80;42.77;99834.27;109167;1259;60788;-71
2023/07/11 01:45:10;;;;;;;10.40;5.00;;;;;;;25.63;43.06;99832.70;109018;1254;73226;-69
2023/07/11 01:47:37;;;;;;;11.10;4.90;;;;;;;25.51;43.15;99833.92;109027;1260;70071;-70
2023/07/11 01:50:05;;;;;;;8.10;4.70;;;;;;;25.49;43.18;99832.71;109206;1254;71433;-69
2023/07/11 01:52:33;;;;;;;7.70;5.00;;;;;;;25.47;43.15;99835.48;109217;1254;60826;-68
2023/07/11 01:55:00;;;;;;;7.70;4.80;;;;;;;25.47;43.38;99836.48;109274;1254;59509;-69
2023/07/11 01:57:31;;;;;;;9.60;5.80;;;;;;;25.51;43.44;99839.17;109207;1253;73808;-68
2023/07/11 01:59:58;;;;;;;8.60;5.10;;;;;;;25.57;43.29;99836.59;109209;1252;69139;-68
2023/07/11 02:02:25;;;;;;;10.40;5.60;;;;;;;25.51;43.31;99841.88;109341;1254;72658;-69
2023/07/11 02:04:53;;;;;;;8.80;5.60;;;;;;;25.45;43.70;99844.48;109268;1254;61074;-69
2023/07/11 02:07:20;;;;;;;9.00;5.70;;;;;;;25.52;43.67;99838.89;109244;1254;59986;-69
2023/07/11 02:09:48;;;;;;;8.90;6.20;;;;;;;25.53;43.56;99838.54;109221;1253;72560;-69
2023/07/11 02:12:15;;;;;;;10.50;6.60;;;;;;;25.19;44.50;99836.85;109265;1255;69041;-70
2023/07/11 02:14:43;;;;;;;11.30;6.20;;;;;;;25.04;45.00;99838.41;109245;1257;72994;-68
2023/07/11 02:17:14;;;;;;;9.30;6.30;;;;;;;25.05;45.20;99835.46;109210;1254;60851;-68
2023/07/11 02:19:44;;;;;;;9.70;6.00;;;;;;;24.98;45.32;99837.20;109263;1257;59978;-67
2023/07/11 02:22:12;;;;;;;11.30;7.00;;;;;;;24.94;45.63;99837.06;109217;1254;72951;-69
2023/07/11 02:24:39;;;;;;;9.00;6.60;;;;;;;25.33;45.09;99832.77;109217;1255;70156;-69
2023/07/11 02:27:07;;;;;;;9.90;7.10;;;;;;;25.43;44.80;99835.68;109274;1254;73720;-70
2023/07/11 02:29:34;;;;;;;10.40;7.00;;;;;;;25.43;44.84;99831.40;109225;1254;61797;-70
2023/07/11 02:32:02;;;;;;;11.10;6.60;;;;;;;25.57;44.65;99823.38;109204;1257;59943;-71
2023/07/11 02:34:29;;;;;;;11.70;6.90;;;;;;;25.74;44.41;99827.20;109253;1254;72532;-68
2023/07/11 02:36:57;;;;;;;12.40;6.80;;;;;;;25.82;44.28;99830.70;109254;1254;68727;-68
2023/07/11 02:39:24;;;;;;;10.80;6.90;;;;;;;25.87;44.34;99830.17;109208;1256;71792;-69
2023/07/11 02:41:51;;;;;;;10.10;6.90;;;;;;;25.99;44.27;99829.25;109309;1252;60478;-69
2023/07/11 02:44:19;;;;;;;10.10;6.80;;;;;;;26.18;44.05;99831.96;109209;1254;59964;-69
2023/07/11 02:46:46;;;;;;;7.80;5.70;;;;;;;26.23;44.06;99835.36;109252;1253;74262;-70
2023/07/11 02:49:13;;;;;;;10.60;6.80;;;;;;;26.14;44.37;99831.79;109224;1255;68652;-68
2023/07/11 02:51:41;;;;;;;9.30;6.20;;;;;;;26.17;44.57;99833.95;109164;1259;72664;-69
2023/07/11 02:54:08;;;;;;;9.20;6.50;;;;;;;26.36;44.34;99836.66;109186;1254;60421;-68
2023/07/11 02:56:35;;;;;;;12.50;6.60;;;;;;;26.29;44.55;99836.97;109198;1254;58781;-69
2023/07/11 02:59:03;;;;;;;11.70;6.30;;;;;;;26.12;45.00;99837.40;109164;1259;72536;-69
2023/07/11 03:01:33;;;;;;;13.90;7.10;;;;;;;26.13;45.07;99836.41;109203;1254;69798;-69
2023/07/11 03:04:01;;;;;;;8.70;6.10;;;;;;;26.15;45.17;99836.13;109147;1257;71480;-69
2023/07/11 03:06:28;;;;;;;11.10;7.00;;;;;;;26.25;45.08;99835.80;109153;1259;61689;-69
2023/07/11 03:08:56;;;;;;;8.30;6.50;;;;;;;26.38;45.04;99833.92;109170;1253;61461;-68
2023/07/11 03:11:23;;;;;;;7.40;5.40;;;;;;;26.15;45.52;99836.95;109167;1254;72574;-69
2023/07/11 03:13:50;;;;;;;12.80;7.30;;;;;;;26.10;45.73;99833.58;109207;1254;70304;-70
2023/07/11 03:16:18;;;;;;;8.80;6.40;;;;;;;26.11;45.95;99831.43;109156;1253;72718;-69
2023/07/11 03:18:45;;;;;;;9.70;5.90;;;;;;;26.57;45.28;99830.27;109176;1253;62264;-71
2023/07/11 03:21:12;;;;;;;7.70;5.90;;;;;;;26.53;45.38;99828.09;108260;1254;60319;-70
2023/07/11 03:23:40;;;;;;;8.50;5.60;;;;;;;26.60;45.42;99827.77;107808;1260;73906;-66
2023/07/11 03:26:07;;;;;;;8.70;6.30;;;;;;;26.86;45.04;99828.35;107979;1255;69171;-67
2023/07/11 03:28:35;;;;;;;8.80;6.50;;;;;;;27.05;44.79;99828.17;107947;1254;72663;-68
2023/07/11 03:31:02;;;;;;;8.00;5.60;;;;;;;27.34;44.21;99829.88;107971;1254;61660;-68
2023/07/11 03:33:30;;;;;;;9.20;5.90;;;;;;;27.57;43.46;99833.36;107926;1254;59975;-69
2023/07/11 03:35:58;;;;;;;7.80;5.00;;;;;;;27.57;43.44;99828.92;107871;1258;73986;-69
2023/07/11 03:38:26;;;;;;;9.30;5.70;;;;;;;27.59;43.46;99830.61;107826;1255;69194;-68
2023/07/11 03:40:53;;;;;;;7.00;5.10;;;;;;;27.81;42.80;99827.22;107861;1254;71683;-69
2023/07/11 03:43:20;;;;;;;7.10;5.20;;;;;;;27.94;42.21;99825.46;107902;1255;60730;-68
2023/07/11 03:45:48;;;;;;;10.60;5.20;;;;;;;28.19;41.36;99821.77;107854;1260;60434;-69
2023/07/11 03:48:31;;;;;;;5.80;4.70;;;;;;;28.33;41.04;99821.44;107964;1258;73851;-69
2023/07/11 03:50:58;;;;;;;7.00;4.40;;;;;;;28.38;40.96;99824.44;107940;1254;70126;-70
2023/07/11 03:56:27;;;;;;;6.90;4.50;;;;;;;25.89;46.04;99840.09;105150;1286;601115;-70
2023/07/11 03:58:54;;;;;;;7.60;4.70;;;;;;;27.51;42.24;99842.02;107176;1264;60453;-69
2023/07/11 04:01:21;;;;;;;9.60;4.90;;;;;;;27.71;41.84;99846.48;107348;1261;58833;-69
2023/07/11 04:03:49;;;;;;;6.30;4.10;;;;;;;28.05;41.33;99842.02;107416;1260;71998;-68
2023/07/11 04:06:16;;;;;;;9.30;5.10;;;;;;;28.27;40.68;99838.20;107457;1260;70139;-69
2023/07/11 04:08:44;;;;;;;6.50;4.50;;;;;;;28.56;40.13;99834.10;107360;1260;71730;-68
2023/07/11 04:11:11;;;;;;;8.70;4.60;;;;;;;28.74;39.58;99829.14;107400;1261;172809;-69
2023/07/11 04:13:39;;;;;;;9.30;5.00;;;;;;;29.11;39.02;99831.18;107623;1257;59980;-70
2023/07/11 04:16:06;;;;;;;6.90;4.00;;;;;;;29.29;38.57;99823.45;107539;1258;72249;-69
2023/07/11 04:18:34;;;;;;;4.80;3.80;;;;;;;29.57;37.97;99821.66;107497;1257;69533;-69
2023/07/11 04:21:01;;;;;;;7.30;4.30;;;;;;;29.63;37.68;99817.55;107476;1257;72650;-68
2023/07/11 04:23:28;;;;;;;7.10;4.00;;;;;;;29.63;37.71;99814.34;107522;1260;60783;-69
2023/07/11 04:25:56;;;;;;;7.00;3.70;;;;;;;29.67;37.41;99810.21;107471;1260;59330;-69
2023/07/11 04:28:23;;;;;;;10.50;4.60;;;;;;;30.23;36.26;99812.08;107528;1257;73001;-69
2023/07/11 04:30:50;;;;;;;5.10;3.40;;;;;;;30.44;35.98;99806.79;107513;1257;69399;-70
2023/07/11 04:33:18;;;;;;;4.50;3.60;;;;;;;30.51;35.67;99809.53;107520;1263;73154;-69
2023/07/11 04:35:45;;;;;;;5.10;3.50;;;;;;;30.75;35.09;99813.94;107466;1260;61799;-69
2023/07/11 04:38:13;;;;;;;10.10;4.10;;;;;;;31.02;34.88;99816.36;108122;1251;59526;-69
2023/07/11 04:40:40;;;;;;;8.40;3.80;;;;;;;31.07;34.31;99816.19;108128;1251;73049;-69
2023/07/11 04:43:08;;;;;;;5.90;3.80;;;;;;;31.13;33.75;99816.64;108193;1256;68707;-69
2023/07/11 04:45:35;;;;;;;10.20;3.20;;;;;;;31.31;34.12;99818.86;108120;1251;72616;-69
2023/07/11 04:48:03;;;;;;;6.80;3.70;;;;;;;31.64;33.62;99820.04;108127;1251;60529;-69
2023/07/11 04:50:30;;;;;;;7.60;3.90;;;;;;;31.57;33.37;99822.42;108049;1252;60057;-68
2023/07/11 04:52:58;;;;;;;6.00;3.80;;;;;;;31.73;33.09;99823.82;108090;1251;73021;-70
2023/07/11 04:55:25;;;;;;;5.70;3.60;;;;;;;31.80;32.99;99820.33;108081;1251;69596;-70
2023/07/11 04:57:52;;;;;;;7.10;3.70;;;;;;;31.98;32.94;99822.48;108109;1252;71420;-70
2023/07/11 05:00:20;;;;;;;8.40;3.80;;;;;;;32.49;32.41;99820.38;108033;1251;60873;-71
2023/07/11 05:02:47;;;;;;;11.50;3.60;;;;;;;32.77;32.24;99825.61;108054;1251;59587;-69
2023/07/11 05:05:15;;;;;;;5.20;3.70;;;;;;;33.10;31.28;99825.80;108023;1251;71837;-69
2023/07/11 05:07:42;;;;;;;4.50;3.20;;;;;;;32.91;31.54;99820.97;107935;1254;70613;-69
2023/07/11 05:10:09;;;;;;;8.00;3.70;;;;;;;32.91;31.47;99817.31;107851;1257;72827;-70
2023/07/11 05:12:37;;;;;;;5.50;3.10;;;;;;;33.07;31.17;99817.60;108017;1253;60487;-69
2023/07/11 05:15:05;;;;;;;5.60;3.00;;;;;;;33.39;30.77;99814.89;107896;1253;59454;-70
2023/07/11 05:17:32;;;;;;;6.50;3.20;;;;;;;33.47;30.48;99814.19;109223;1253;72162;-70
2023/07/11 05:19:59;;;;;;;3.80;3.20;;;;;;;33.72;29.89;99811.78;109256;1254;68468;-69
2023/07/11 05:22:27;;;;;;;6.20;3.40;;;;;;;34.02;29.76;99810.70;109254;1254;62455;-70
2023/07/11 05:24:54;;;;;;;5.90;4.00;;;;;;;34.17;29.82;99815.44;109257;1253;57658;-70
2023/07/11 05:27:22;;;;;;;6.70;3.30;;;;;;;34.17;29.65;99817.63;109257;1258;57686;-70
2023/07/11 05:29:49;;;;;;;9.40;3.20;;;;;;;34.02;29.88;99816.42;109250;1254;64561;-70
2023/07/11 05:32:16;;;;;;;6.00;3.20;;;;;;;34.14;29.23;99819.35;109241;1253;61555;-69
2023/07/11 05:34:44;;;;;;;7.30;3.20;;;;;;;34.63;28.94;99819.84;109233;1254;63849;-70
2023/07/11 05:37:11;;;;;;;5.00;2.70;;;;;;;34.96;27.89;99819.11;109220;1254;57381;-69
2023/07/11 05:39:38;;;;;;;14.20;2.90;;;;;;;34.64;27.18;99817.80;109245;1254;57513;-71
2023/07/11 05:42:06;;;;;;;6.00;2.80;;;;;;;34.56;27.48;99819.83;109293;1252;62953;-69
2023/07/11 05:44:33;;;;;;;5.10;2.70;;;;;;;34.56;27.51;99823.35;109235;1255;61311;-70
2023/07/11 05:47:00;;;;;;;3.90;2.80;;;;;;;34.68;27.59;99818.58;109223;1254;63004;-70
2023/07/11 05:49:28;;;;;;;4.00;2.60;;;;;;;34.73;27.17;99818.20;109202;1254;57531;-71
2023/07/11 05:51:55;;;;;;;6.60;2.60;;;;;;;34.69;27.52;99818.96;109177;1258;57655;-71
2023/07/11 05:54:22;;;;;;;4.00;2.90;;;;;;;34.69;27.97;99817.35;108893;1254;66364;-71
2023/07/11 05:56:50;;;;;;;3.90;2.60;;;;;;;35.02;27.77;99816.70;107847;1254;60098;-69
2023/07/11 05:59:18;;;;;;;6.90;2.30;;;;;;;35.42;27.39;99813.80;107914;1257;64410;-71
2023/07/11 06:01:48;;;;;;;6.10;2.60;;;;;;;35.68;27.06;99814.71;107963;1254;60026;-70
2023/07/11 06:04:18;;;;;;;4.30;2.40;;;;;;;35.92;26.50;99814.98;107993;1255;58308;-69
2023/07/11 06:06:45;;;;;;;5.00;2.80;;;;;;;36.02;26.29;99807.80;108042;1254;63062;-70
2023/07/11 06:09:15;;;;;;;2.60;2.20;;;;;;;36.21;26.07;99804.88;107974;1254;61466;-71
2023/07/11 06:11:43;;;;;;;4.50;2.40;;;;;;;36.35;25.61;99798.53;107946;1255;63782;-72
2023/07/11 06:14:11;;;;;;;5.30;2.50;;;;;;;36.48;25.92;99796.88;107974;1253;59538;-71
2023/07/11 06:16:39;;;;;;;6.00;2.60;;;;;;;36.80;25.50;99798.74;107934;1254;59545;-71
2023/07/11 06:19:06;;;;;;;3.50;3.10;;;;;;;36.86;26.13;99794.07;107965;1254;63308;-70
2023/07/11 06:21:33;;;;;;;3.70;3.20;;;;;;;36.71;26.78;99794.96;107991;1254;60229;-70
2023/07/11 06:24:01;;;;;;;4.00;3.20;;;;;;;36.43;27.05;99795.99;107961;1254;64073;-70
2023/07/11 06:26:28;;;;;;;7.00;3.30;;;;;;;36.11;27.44;99803.63;107947;1254;58317;-72
2023/07/11 06:28:56;;;;;;;8.50;3.40;;;;;;;35.90;27.65;99807.13;108022;1253;59059;-71
2023/07/11 06:31:25;;;;;;;5.90;3.70;;;;;;;35.36;28.21;99805.01;108025;1254;64092;-72
2023/07/11 06:33:55;;;;;;;5.40;3.30;;;;;;;34.64;29.18;99805.80;108026;1258;61409;-69
2023/07/11 06:36:23;;;;;;;6.00;3.40;;;;;;;34.35;29.42;99807.60;107925;1254;64315;-70
2023/07/11 06:38:50;;;;;;;5.30;3.60;;;;;;;33.95;29.91;99808.38;107968;1254;60594;-72
2023/07/11 06:41:17;;;;;;;7.80;3.60;;;;;;;33.08;31.14;99809.51;107975;1254;60049;-69
2023/07/11 06:43:45;;;;;;;4.30;3.50;;;;;;;32.79;31.69;99806.15;107949;1257;73567;-70
2023/07/11 06:46:13;;;;;;;7.60;3.90;;;;;;;32.67;32.11;99807.65;108059;1254;72646;-71
2023/07/11 06:48:41;;;;;;;7.60;3.80;;;;;;;32.70;31.93;99807.04;108012;1253;71542;-71
2023/07/11 06:51:08;;;;;;;5.30;3.40;;;;;;;32.79;31.79;99804.35;108031;1257;59640;-70
2023/07/11 06:53:36;;;;;;;8.90;3.80;;;;;;;32.87;31.52;99804.39;107963;1254;59268;-70
2023/07/11 06:56:04;;;;;;;8.60;3.00;;;;;;;33.15;31.24;99802.54;107949;1259;72284;-71
2023/07/11 06:58:32;;;;;;;3.70;2.50;;;;;;;33.51;30.02;99802.10;107805;1258;69796;-70
2023/07/11 07:01:03;;;;;;;3.70;2.80;;;;;;;33.71;28.98;99801.55;107877;1259;71447;-71
2023/07/11 07:03:35;;;;;;;4.90;2.30;;;;;;;33.91;28.11;99801.77;109101;1257;58868;-70
2023/07/11 07:06:04;;;;;;;3.60;2.30;;;;;;;34.28;26.78;99804.11;109089;1254;57624;-71
2023/07/11 07:08:32;;;;;;;4.60;1.80;;;;;;;34.54;26.30;99805.03;109146;1253;63026;-71
2023/07/11 07:10:59;;;;;;;5.10;2.00;;;;;;;34.73;25.57;99802.11;108723;1259;60398;-69
2023/07/11 07:13:27;;;;;;;3.20;1.80;;;;;;;35.23;24.97;99805.34;107926;1254;64043;-68
2023/07/11 07:15:57;;;;;;;3.90;1.80;;;;;;;35.36;24.48;99801.23;107918;1254;59653;-69
2023/07/11 07:18:25;;;;;;;3.10;2.10;;;;;;;35.31;24.78;99802.64;107850;1254;59378;-71
2023/07/11 07:20:53;;;;;;;3.30;2.10;;;;;;;35.39;24.74;99800.70;108062;1254;63726;-71
2023/07/11 07:23:25;;;;;;;5.30;2.10;;;;;;;35.66;24.64;99796.58;107879;1254;61348;-71
2023/07/11 07:25:55;;;;;;;5.80;2.20;;;;;;;35.67;24.19;99800.06;107932;1255;63934;-71
2023/07/11 07:28:22;;;;;;;4.30;2.10;;;;;;;35.36;24.25;99799.08;107987;1260;59793;-70
2023/07/11 07:30:51;;;;;;;4.50;1.90;;;;;;;35.14;24.47;99803.17;107948;1258;59416;-69
2023/07/11 07:33:20;;;;;;;4.40;2.10;;;;;;;35.04;24.24;99798.70;107956;1254;63433;-71
2023/07/11 07:35:47;;;;;;;2.40;1.70;;;;;;;34.97;24.26;99797.00;108090;1255;60086;-73
2023/07/11 07:38:14;;;;;;;2.90;2.00;;;;;;;35.00;24.18;99800.26;107995;1257;63777;-71
2023/07/11 07:40:42;;;;;;;7.10;2.20;;;;;;;35.19;23.82;99802.70;107965;1254;59532;-71
2023/07/11 07:43:09;;;;;;;3.70;2.00;;;;;;;35.27;23.78;99795.98;107941;1254;59534;-72
2023/07/11 07:45:36;;;;;;;2.80;2.50;;;;;;;35.30;24.06;99798.11;107924;1254;64743;-71
2023/07/11 07:48:04;;;;;;;2.80;2.00;;;;;;;35.49;24.10;99797.30;107930;1256;60091;-72
2023/07/11 07:50:31;;;;;;;6.30;2.00;;;;;;;35.53;24.03;99793.98;107669;1261;63796;-71
2023/07/11 07:52:59;;;;;;;3.40;2.30;;;;;;;35.69;23.89;99798.56;107858;1255;59700;-70
2023/07/11 07:55:26;;;;;;;2.10;1.90;;;;;;;36.03;22.98;99793.24;107849;1257;59135;-72
2023/07/11 07:57:53;;;;;;;3.70;2.00;;;;;;;36.17;23.02;99788.39;107851;1259;64675;-71
2023/07/11 08:00:21;;;;;;;5.80;2.30;;;;;;;36.31;22.97;99786.84;108807;1254;61335;-69
2023/07/11 08:02:53;;;;;;;4.20;2.00;;;;;;;36.45;22.89;99784.34;107864;1257;63731;-71
2023/07/11 08:05:21;;;;;;;2.50;2.00;;;;;;;36.35;22.73;99785.89;107818;1257;59134;-70
2023/07/11 08:07:48;;;;;;;5.00;2.10;;;;;;;36.13;22.94;99786.57;107914;1254;60414;-71
2023/07/11 08:10:16;;;;;;;4.00;2.00;;;;;;;36.04;23.16;99785.77;107894;1254;63690;-71
2023/07/11 08:12:43;;;;;;;2.90;1.80;;;;;;;35.79;23.57;99796.13;107848;1253;61463;-71
2023/07/11 08:15:11;;;;;;;3.10;2.00;;;;;;;35.85;23.16;99800.17;107856;1260;63741;-72
2023/07/11 08:17:40;;;;;;;2.60;2.10;;;;;;;35.77;23.19;99796.41;107876;1254;59283;-71
2023/07/11 08:20:08;;;;;;;2.60;2.00;;;;;;;35.89;22.97;99789.34;107882;1255;60754;-71
2023/07/11 08:22:35;;;;;;;5.20;1.90;;;;;;;36.18;22.41;99788.08;107854;1255;63675;-72
2023/07/11 08:25:03;;;;;;;2.10;1.80;;;;;;;36.13;22.62;99793.70;107819;1260;60842;-70
2023/07/11 08:27:31;;;;;;;2.70;1.60;;;;;;;35.78;22.50;99796.98;107852;1260;64305;-69
2023/07/11 08:29:58;;;;;;;3.30;1.70;;;;;;;35.85;22.09;99796.85;107827;1255;60421;-70
2023/07/11 08:32:25;;;;;;;3.20;2.00;;;;;;;36.16;21.76;99794.39;107839;1254;60530;-71
2023/07/11 08:34:53;;;;;;;4.70;2.10;;;;;;;36.43;21.23;99788.47;107918;1258;64915;-70
2023/07/11 08:37:21;;;;;;;2.00;1.70;;;;;;;36.57;20.95;99793.08;107903;1254;61412;-70
2023/07/11 08:39:48;;;;;;;4.60;2.00;;;;;;;36.68;21.33;99788.57;107864;1255;63767;-71
2023/07/11 08:42:31;;;;;;;4.20;1.70;;;;;;;36.63;21.21;99783.35;107927;1254;60264;-70
2023/07/11 08:45:02;;;;;;;1.60;1.50;;;;;;;36.71;21.28;99786.54;108309;1254;60291;-71
2023/07/11 08:47:38;;;;;;;3.00;1.50;;;;;;;36.71;21.21;99796.11;107909;1254;64917;-71
2023/07/11 08:50:16;;;;;;;2.60;1.70;;;;;;;36.64;21.09;99795.51;107880;1260;61518;-70
2023/07/11 08:52:43;;;;;;;3.40;1.70;;;;;;;36.39;21.05;99787.00;107981;1254;64505;-71
2023/07/11 08:55:13;;;;;;;2.60;1.80;;;;;;;36.30;21.13;99792.96;107907;1254;60357;-71
2023/07/11 08:57:46;;;;;;;3.20;1.90;;;;;;;36.57;21.48;99796.40;108086;1257;60277;-70
2023/07/11 09:00:17;;;;;;;3.10;2.00;;;;;;;36.93;21.01;99790.08;109063;1254;65007;-72
2023/07/11 09:02:55;;;;;;;5.50;2.00;;;;;;;37.12;20.62;99792.47;108527;1258;60361;-71
2023/07/11 09:05:48;;;;;;;4.80;1.90;;;;;;;37.37;20.90;99789.01;107931;1254;63151;-71
2023/07/11 09:08:17;;;;;;;2.40;1.70;;;;;;;37.46;20.44;99782.99;107968;1257;60350;-71
2023/07/11 09:10:44;;;;;;;3.80;2.00;;;;;;;37.01;20.56;99783.34;107928;1254;60482;-70
2023/07/11 09:13:40;;;;;;;1.70;1.50;;;;;;;37.04;21.02;99786.17;107989;1253;65026;-71
2023/07/11 09:16:15;;;;;;;4.80;1.60;;;;;;;37.52;20.33;99785.55;107976;1255;61359;-71
2023/07/11 09:18:53;;;;;;;6.40;1.90;;;;;;;37.97;19.88;99784.58;107928;1254;63861;-70
2023/07/11 09:21:52;;;;;;;4.20;2.10;;;;;;;37.99;19.44;99777.39;107826;1254;60412;-69
2023/07/11 09:24:31;;;;;;;3.30;1.60;;;;;;;37.94;19.47;99776.36;107927;1254;60447;-69
2023/07/11 09:27:15;;;;;;;3.50;1.40;;;;;;;38.05;19.73;99778.74;107970;1253;63678;-71
2023/07/11 09:29:42;;;;;;;4.50;1.70;;;;;;;38.09;19.96;99778.55;107834;1253;60357;-71
2023/07/11 09:32:10;;;;;;;3.50;1.60;;;;;;;38.40;19.62;99780.87;107853;1252;63964;-71
2023/07/11 09:34:41;;;;;;;2.70;1.80;;;;;;;38.70;19.43;99777.52;107993;1260;60609;-70
2023/07/11 09:37:17;;;;;;;;;;;;;;;39.05;19.42;99775.66;108015;1254;60443;-70
2023/07/11 09:40:02;;;;;;;4.80;1.60;;;;;;;39.16;18.58;99772.77;108017;1257;64973;-71
2023/07/11 09:42:56;;;;;;;2.20;1.60;;;;;;;38.98;19.07;99775.67;108978;1254;70190;-71
2023/07/11 09:45:35;;;;;;;4.60;1.80;;;;;;;38.91;18.83;99770.81;107932;1254;63786;-71
2023/07/11 09:48:31;;;;;;;3.70;1.50;;;;;;;38.83;19.17;99768.02;107923;1254;60326;-71
2023/07/11 09:51:10;;;;;;;3.60;1.60;;;;;;;38.99;19.06;99770.14;107663;1254;59238;-71
2023/07/11 09:53:44;;;;;;;5.10;1.90;;;;;;;38.64;19.16;99766.34;107787;1254;64914;-72
2023/07/11 09:56:16;;;;;;;4.80;1.50;;;;;;;38.08;19.72;99767.33;107913;1254;60190;-71
2023/07/11 09:58:47;;;;;;;3.20;1.90;;;;;;;38.09;20.09;99764.73;108046;1257;63857;-71
2023/07/11 10:01:30;;;;;;;5.30;3.50;;;;;;;38.29;19.96;99766.19;107878;1259;60360;-71
2023/07/11 10:03:58;;;;;;;36.00;30.10;;;;;;;38.49;19.60;99765.63;107944;1254;60431;-73
2023/07/11 10:06:41;;;;;;;13.00;8.40;;;;;;;38.56;19.44;99765.09;108499;1254;64943;-71
2023/07/11 10:09:16;;;;;;;4.20;2.20;;;;;;;38.58;19.80;99763.86;107833;1254;60872;-71
2023/07/11 10:11:51;;;;;;;6.00;2.50;;;;;;;38.53;19.85;99762.62;108078;1257;62510;-72
2023/07/11 10:14:20;;;;;;;6.00;1.80;;;;;;;38.22;19.79;99762.38;107898;1259;60366;-72
2023/07/11 10:16:48;;;;;;;2.20;1.90;;;;;;;37.81;19.84;99765.11;107867;1254;60300;-71
2023/07/11 10:19:18;;;;;;;3.70;1.60;;;;;;;37.55;20.12;99768.97;107914;1259;65448;-71
2023/07/11 10:21:49;;;;;;;4.30;1.80;;;;;;;37.76;20.07;99765.02;107895;1254;60114;-71
2023/07/11 10:24:22;;;;;;;4.50;1.70;;;;;;;37.83;20.33;99764.38;107907;1257;63932;-72
2023/07/11 10:26:53;;;;;;;3.10;1.90;;;;;;;38.03;19.58;99760.61;109044;1255;58215;-69
2023/07/11 10:29:24;;;;;;;5.20;1.80;;;;;;;38.08;19.56;99762.39;107654;1260;60452;-71
2023/07/11 10:31:57;;;;;;;2.90;1.60;;;;;;;37.84;19.82;99759.84;107852;1254;65439;-70
2023/07/11 10:34:32;;;;;;;3.80;2.10;;;;;;;37.80;19.91;99759.20;107690;1263;60444;-71
2023/07/11 10:37:05;;;;;;;1.60;1.50;;;;;;;37.92;19.58;99750.44;108785;1254;63766;-71
2023/07/11 10:39:44;;;;;;;4.60;1.60;;;;;;;37.89;19.37;99749.15;107941;1254;60422;-70
2023/07/11 10:42:27;;;;;;;5.20;1.70;;;;;;;37.66;19.92;99750.53;107834;1258;60758;-70
2023/07/11 10:45:11;;;;;;;7.10;3.20;;;;;;;37.44;20.14;99755.32;107905;1255;64868;-70
2023/07/11 10:47:44;;;;;;;3.10;2.20;;;;;;;37.36;20.05;99760.20;107918;1254;61543;-69
2023/07/11 10:50:31;;;;;;;6.40;1.70;;;;;;;37.60;20.06;99758.48;107902;1260;63723;-71
2023/07/11 10:53:01;;;;;;;4.30;1.80;;;;;;;37.88;19.76;99755.64;108284;1254;60377;-73
2023/07/11 10:55:33;;;;;;;3.00;1.30;;;;;;;37.98;19.64;99759.02;108011;1254;60431;-71
2023/07/11 10:58:02;;;;;;;2.80;1.50;;;;;;;37.88;19.90;99763.71;107937;1253;64915;-72
2023/07/11 11:00:39;;;;;;;2.60;1.60;;;;;;;37.69;20.23;99766.59;108094;1253;61638;-72
2023/07/11 11:03:14;;;;;;;3.30;1.50;;;;;;;37.48;20.19;99764.75;107987;1258;63694;-70
2023/07/11 11:06:05;;;;;;;2.00;1.50;;;;;;;37.23;20.12;99770.08;107918;1255;60524;-70
2023/07/11 11:08:40;;;;;;;4.40;1.80;;;;;;;37.37;20.15;99769.05;107949;1259;60382;-70
2023/07/11 11:11:32;;;;;;;5.50;2.30;;;;;;;37.54;19.82;99766.65;108015;1254;63613;-70
2023/07/11 11:14:05;;;;;;;2.70;1.50;;;;;;;37.82;19.75;99764.52;108120;1257;60937;-71
2023/07/11 11:16:47;;;;;;;4.50;1.40;;;;;;;37.91;19.77;99763.23;108099;1254;63766;-70
2023/07/11 11:19:45;;;;;;;2.00;1.50;;;;;;;37.97;19.44;99760.85;108331;1253;60311;-70
2023/07/11 11:22:41;;;;;;;2.70;1.40;;;;;;;37.84;19.49;99765.89;107939;1257;59254;-70
2023/07/11 11:25:37;;;;;;;2.50;1.40;;;;;;;37.49;19.22;99763.39;107993;1252;65037;-72
2023/07/11 11:28:19;;;;;;;4.50;1.70;;;;;;;37.06;20.01;99773.31;107779;1254;61646;-73
2023/07/11 11:30:51;;;;;;;5.80;1.60;;;;;;;36.67;20.63;99770.42;108097;1254;62487;-71
2023/07/11 11:33:31;;;;;;;2.10;1.60;;;;;;;36.47;21.29;99770.86;108027;1254;60312;-71
2023/07/11 11:36:28;;;;;;;2.80;1.90;;;;;;;36.29;20.96;99769.73;108087;1252;60274;-70
2023/07/11 11:39:03;;;;;;;2.60;1.60;;;;;;;36.37;20.40;99759.58;108072;1254;64874;-71
2023/07/11 11:41:41;;;;;;;5.30;1.80;;;;;;;36.43;20.82;99762.36;108115;1254;61349;-71